createdAt,value
2022-08-19T13:04:54.148Z,96616.88
2022-08-19T13:07:20.847Z,96621.84
2022-08-19T13:09:47.421Z,96611.06
2022-08-19T13:12:14.429Z,96616.09
2022-08-19T13:14:41.515Z,96606.72
2022-08-19T13:17:09.293Z,96605.94
2022-08-19T13:19:37.776Z,96597.50
2022-08-19T13:22:04.478Z,96595.53
2022-08-19T13:24:41.118Z,96592.09
2022-08-19T13:27:10.560Z,96596.78
2022-08-19T13:29:55.573Z,96588.22
2022-08-19T13:32:40.598Z,96588.88
2022-08-19T13:35:09.965Z,96591.09
2022-08-19T13:37:44.565Z,96589.31
2022-08-19T13:40:16.629Z,96587.00
2022-08-19T13:42:44.953Z,96583.31
2022-08-19T13:45:12.617Z,96586.66
2022-08-19T13:47:45.853Z,96578.81
2022-08-19T13:50:18.491Z,96573.44
2022-08-19T13:52:45.685Z,96573.97
2022-08-19T13:55:13.252Z,96572.59
2022-08-19T13:57:40.171Z,96569.13
2022-08-19T14:00:11.587Z,96559.94
2022-08-19T14:02:40.018Z,96571.53
2022-08-19T14:05:12.252Z,96562.09
2022-08-19T14:07:38.941Z,96562.72
2022-08-19T14:10:07.051Z,96561.38
2022-08-19T14:12:34.118Z,96560.41
2022-08-19T14:15:02.185Z,96556.34
2022-08-19T14:17:29.783Z,96568.34
2022-08-19T14:20:10.499Z,96570.22
2022-08-19T14:22:39.588Z,96556.50
2022-08-19T14:25:09.014Z,96552.06
2022-08-19T14:27:36.809Z,96553.31
2022-08-19T14:30:08.481Z,96551.81
2022-08-19T14:32:35.812Z,96565.09
2022-08-19T14:35:03.258Z,96549.84
2022-08-19T14:37:29.987Z,96546.47
2022-08-19T14:39:56.628Z,96544.31
2022-08-19T14:42:23.289Z,96542.56
2022-08-19T14:44:49.894Z,96543.00
2022-08-19T14:47:16.540Z,96546.56
2022-08-19T14:49:48.299Z,96546.13
2022-08-19T14:52:15.363Z,96542.50
2022-08-19T14:54:41.839Z,96539.47
2022-08-19T14:57:08.477Z,96536.97
2022-08-19T14:59:36.057Z,96535.75
2022-08-19T15:02:33.620Z,96538.06
2022-08-19T15:04:58.062Z,96535.34
2022-08-19T15:07:25.692Z,96537.84
2022-08-19T15:09:56.116Z,96534.50
2022-08-19T15:12:23.577Z,96537.03
2022-08-19T15:14:56.177Z,96538.63
2022-08-19T15:17:43.756Z,96532.19
2022-08-19T15:20:13.513Z,96530.25
2022-08-19T15:22:41.003Z,96535.59
2022-08-19T15:25:09.990Z,96536.03
2022-08-19T15:27:39.724Z,96531.75
2022-08-19T15:30:09.390Z,96528.38
2022-08-19T15:32:37.373Z,96527.06
2022-08-19T15:35:06.506Z,96519.25
2022-08-19T15:37:37.144Z,96517.59
2022-08-19T15:40:06.124Z,96525.06
2022-08-19T15:42:33.125Z,96521.66
2022-08-19T15:45:00.530Z,96525.50
2022-08-19T15:47:34.741Z,96524.66
2022-08-19T15:50:10.519Z,96526.56
2022-08-19T15:52:58.193Z,96524.03
2022-08-19T15:55:33.064Z,96523.66
2022-08-19T15:58:28.251Z,96518.97
2022-08-19T16:01:20.730Z,96520.88
2022-08-19T16:04:13.758Z,96516.97
2022-08-19T16:06:44.193Z,96520.38
2022-08-19T16:09:10.925Z,96523.19
2022-08-19T16:11:39.642Z,96519.09
2022-08-19T16:14:09.535Z,96517.56
2022-08-19T16:16:37.850Z,96530.72
2022-08-19T16:19:12.210Z,96527.03
2022-08-19T16:21:41.755Z,96528.22
2022-08-19T16:24:13.181Z,96528.28
2022-08-19T16:26:41.589Z,96532.53
2022-08-19T16:29:13.000Z,96532.31
2022-08-19T16:31:41.668Z,96539.53
2022-08-19T16:34:08.465Z,96528.19
2022-08-19T16:36:34.980Z,96532.22
2022-08-19T16:39:02.132Z,96535.38
2022-08-19T16:41:29.254Z,96526.59
2022-08-19T16:43:56.105Z,96527.69
2022-08-19T16:46:23.472Z,96529.44
2022-08-19T16:48:54.101Z,96532.53
2022-08-19T16:51:22.847Z,96530.63
2022-08-19T16:53:52.745Z,96531.41
2022-08-19T16:56:20.410Z,96531.75
2022-08-19T16:58:47.753Z,96527.81
2022-08-19T17:01:14.594Z,96530.53
2022-08-19T17:03:41.250Z,96520.16
2022-08-19T17:06:15.867Z,96527.00
2022-08-19T17:08:48.805Z,96530.22
2022-08-19T17:11:18.453Z,96540.06
2022-08-19T17:13:47.901Z,96537.28
2022-08-19T17:16:16.410Z,96545.75
2022-08-19T17:18:43.178Z,96553.50
2022-08-19T17:21:09.813Z,96555.94
2022-08-19T17:23:36.733Z,96552.09
2022-08-19T17:26:16.957Z,96553.81
2022-08-19T17:28:50.177Z,96550.44
2022-08-19T17:31:18.862Z,96552.84
2022-08-19T17:33:48.097Z,96556.97
2022-08-19T17:36:17.625Z,96552.94
2022-08-19T17:38:44.955Z,96554.69
2022-08-19T17:41:11.712Z,96548.78
2022-08-19T17:43:43.132Z,96549.25
2022-08-19T17:46:20.561Z,96556.50
2022-08-19T17:48:52.897Z,96556.41
2022-08-19T17:51:22.509Z,96559.34
2022-08-19T17:53:51.087Z,96554.22
2022-08-19T17:56:18.473Z,96557.25
2022-08-19T17:58:51.126Z,96563.28
2022-08-19T18:01:30.108Z,96564.22
2022-08-19T18:04:12.203Z,96558.63
2022-08-19T18:06:41.728Z,96572.81
2022-08-19T18:09:20.659Z,96583.06
2022-08-19T18:11:52.553Z,96584.63
2022-08-19T18:14:20.518Z,96585.44
2022-08-19T18:16:47.340Z,96585.09
2022-08-19T18:19:13.963Z,96589.50
2022-08-19T18:21:40.873Z,96594.34
2022-08-19T18:24:08.070Z,96597.03
2022-08-19T18:26:37.866Z,96599.78
2022-08-19T18:29:04.474Z,96604.56
2022-08-19T18:31:31.191Z,96607.81
2022-08-19T18:33:58.118Z,96619.91
2022-08-19T18:36:51.945Z,96623.00
2022-08-19T18:39:30.084Z,96623.78
2022-08-19T18:42:15.118Z,96629.22
2022-08-19T18:45:00.420Z,96629.25
2022-08-19T18:47:45.777Z,96639.41
2022-08-19T18:50:13.812Z,96646.53
2022-08-19T18:52:40.649Z,96641.38
2022-08-19T18:55:07.941Z,96649.66
2022-08-19T18:57:34.557Z,96655.03
2022-08-19T19:00:02.752Z,96647.44
2022-08-19T19:02:29.431Z,96652.78
2022-08-19T19:04:56.193Z,96649.34
2022-08-19T19:07:23.417Z,96659.53
2022-08-19T19:09:51.267Z,96668.34
2022-08-19T19:12:18.329Z,96666.03
2022-08-19T19:14:49.406Z,96672.94
2022-08-19T19:17:16.865Z,96683.09
2022-08-19T19:19:44.119Z,96682.72
2022-08-19T19:22:18.031Z,96684.41
2022-08-19T19:24:45.207Z,96684.19
2022-08-19T19:27:13.097Z,96688.00
2022-08-19T19:29:40.700Z,96692.56
2022-08-19T19:32:09.775Z,96699.25
2022-08-19T19:34:40.202Z,96690.63
2022-08-19T19:37:06.879Z,96692.72
2022-08-19T19:39:46.092Z,96684.03
2022-08-19T19:42:20.066Z,96684.09
2022-08-19T19:44:50.782Z,96682.16
2022-08-19T19:47:19.054Z,96692.91
2022-08-19T19:50:12.680Z,96690.59
2022-08-19T19:52:33.668Z,96695.16
2022-08-19T19:55:01.402Z,96709.28
2022-08-19T19:57:29.437Z,96707.44
2022-08-19T19:59:56.655Z,96706.22
2022-08-19T20:02:25.211Z,96709.66
2022-08-19T20:04:52.226Z,96702.09
2022-08-19T20:07:38.880Z,96702.66
2022-08-19T20:10:05.949Z,96716.81
2022-08-19T20:12:32.557Z,96704.47
2022-08-19T20:14:59.175Z,96709.59
2022-08-19T20:17:25.842Z,96713.63
2022-08-19T20:19:53.563Z,96714.31
2022-08-19T20:22:20.199Z,96709.25
2022-08-19T20:24:48.426Z,96719.31
2022-08-19T20:27:15.080Z,96724.75
2022-08-19T20:29:44.268Z,96720.63
2022-08-19T20:32:13.264Z,96728.47
2022-08-19T20:34:40.925Z,96735.28
2022-08-19T20:37:09.452Z,96739.09
2022-08-19T20:39:36.808Z,96736.03
2022-08-19T20:42:03.655Z,96746.22
2022-08-19T20:44:30.271Z,96742.56
2022-08-19T20:47:00.527Z,96739.72
2022-08-19T20:49:29.853Z,96746.47
2022-08-19T20:51:57.036Z,96751.84
2022-08-19T20:54:24.251Z,96754.91
2022-08-19T20:56:51.806Z,96754.50
2022-08-19T20:59:20.161Z,96761.63
2022-08-19T21:01:47.444Z,96763.13
2022-08-19T21:04:14.629Z,96768.06
2022-08-19T21:06:42.231Z,96768.22
2022-08-19T21:09:12.051Z,96767.25
2022-08-19T21:11:39.093Z,96770.31
2022-08-19T21:14:06.048Z,96762.69
2022-08-19T21:16:33.869Z,96750.66
2022-08-19T21:19:00.884Z,96753.94
2022-08-19T21:21:27.734Z,96758.91
2022-08-19T21:23:54.454Z,96755.03
2022-08-19T21:26:21.136Z,96751.50
2022-08-19T21:28:47.768Z,96749.81
2022-08-19T21:31:17.807Z,96754.81
2022-08-19T21:33:45.069Z,96747.53
2022-08-19T21:36:11.767Z,96749.97
2022-08-19T21:38:38.413Z,96755.97
2022-08-19T21:41:06.469Z,96750.34
2022-08-19T21:43:34.880Z,96755.31
2022-08-19T21:46:01.841Z,96756.53
2022-08-19T21:48:28.864Z,96754.22
2022-08-19T21:50:55.520Z,96745.94
2022-08-19T21:53:22.852Z,96748.06
2022-08-19T21:55:53.579Z,96752.22
2022-08-19T21:58:30.035Z,96757.97
2022-08-19T22:00:58.589Z,96756.75
2022-08-19T22:03:25.930Z,96752.78
2022-08-19T22:05:52.766Z,96759.50
2022-08-19T22:08:19.418Z,96762.38
2022-08-19T22:10:46.633Z,96753.34
2022-08-19T22:13:13.508Z,96750.28
2022-08-19T22:15:41.064Z,96754.81
2022-08-19T22:18:07.655Z,96741.09
2022-08-19T22:20:34.339Z,96746.31
2022-08-19T22:23:03.521Z,96750.97
2022-08-19T22:25:35.992Z,96755.91
2022-08-19T22:28:05.964Z,96732.00
2022-08-19T22:30:34.830Z,96730.34
2022-08-19T22:33:07.002Z,96739.19
2022-08-19T22:35:37.579Z,96739.41
2022-08-19T22:38:07.178Z,96743.25
2022-08-19T22:40:36.727Z,96747.47
2022-08-19T22:43:17.135Z,96737.31
2022-08-19T22:45:44.742Z,96730.69
2022-08-19T22:48:14.067Z,96728.38
2022-08-19T22:50:43.084Z,96723.78
2022-08-19T22:53:10.338Z,96724.34
2022-08-19T22:55:38.198Z,96722.22
2022-08-19T22:58:05.599Z,96716.06
2022-08-19T23:00:33.584Z,96705.38
2022-08-19T23:03:01.599Z,96708.81
2022-08-19T23:05:29.561Z,96703.09
2022-08-19T23:07:58.024Z,96703.53
2022-08-19T23:10:28.000Z,96709.59
2022-08-19T23:12:57.876Z,96712.78
2022-08-19T23:15:27.570Z,96722.16
2022-08-19T23:17:57.509Z,96721.84
2022-08-19T23:20:27.282Z,96724.06
2022-08-19T23:22:55.367Z,96720.75
2022-08-19T23:25:25.469Z,96713.03
2022-08-19T23:28:10.570Z,96719.66
2022-08-19T23:30:40.991Z,96720.53
2022-08-19T23:33:18.619Z,96725.28
2022-08-19T23:35:45.194Z,96731.97
2022-08-19T23:38:11.821Z,96715.34
2022-08-19T23:40:39.368Z,96726.03
2022-08-19T23:43:07.958Z,96724.28
2022-08-19T23:45:41.087Z,96720.09
2022-08-19T23:48:17.793Z,96714.25
2022-08-19T23:50:45.779Z,96712.72
2022-08-19T23:53:13.374Z,96709.75
2022-08-19T23:55:42.883Z,96720.41
2022-08-19T23:58:10.600Z,96710.53
